KSCK

Stockton Metropolitan Airport

Stockton, California, USA
METAR KSCK 170055Z 13006KT 4SM RA OVC070 13/10 A3003 RMK AO2 SLP170 P0009 T01280100
Observed Flight Rules
Dec-17 @ 00:55 UTC (43 minutes ago) Marginal Visual Flight Rules
Wind Visibility Clouds Conditions
130° at 6 knots 4 miles
  • Overcast at 7,000' AGL
  • Rain
Temperatures Readings Precipitation
Current 13°C / 55°F
Dewpoint 10°C / 50°F
Humidity 82%
Altimeter 30.03" Hg
Pressure 1017 hPa
Elevation 10
Current Rain 0.09
METAR KSCK 170055Z 13006KT 4SM RA OVC070 13/10 A3003 RMK AO2 SLP170 P0009 T01280100
Observed Flight Rules
Dec-17 @ 00:55 UTC
(43 minutes ago)
MVFR
Wind Visibility
130° at 6 knots 4 miles
Clouds
  • Overcast at 7,000' AGL
Conditions
  • Rain
Temperature Dewpoint
13°C / 55°F 10°C / 50°F
Humidity Altimeter Pressure
82% 30.03" Hg 1017 hPa
Current Rain
0.09